Cottonport, Louisiana
Current Conditions -  °F | °C
As of 9:35 AM on Friday 24 Oct 2014 (Local Time) from KOPL Reporting Station
Clear Clear  
Wind Chill: 57°   Ceiling: Unl
Heat Index: 57°   Visibility: 10mi
Dew Point: 52°   Wind: 3mph
Humidity: 83%   Direction: 10°N
Pressure: 30.16"   Gusts: NA
Location:  30.98°N, 92.05°W
Report Text: KOPL 241435Z AUTO 01003KT 10SM CLR 14/11 A3016 RMK AO2 T01390110
Loading
Personal Weather Stations






























Interactive Weather Map
Tropical Storm Tracking
New forecast layout! Learn more

10-Day Weather Forecast

Advertisements
Track Severe Weather on mobile